Time;durP1;ratioP1;P1;durP2;ratioP2;P2;SDS_P1;SDS_P2;PMS_P1;PMS_P2;Temp;Humidity;BMP_temperature;BMP_pressure;BME280_temperature;BME280_humidity;BME280_pressure;Samples;Min_cycle;Max_cycle;Signal;HPM_P1;HPM_P2
2020/12/26 00:00:34;;;;;;;30.80;19.33;;;;;;;;;;2088790;28;20195;-57
2020/12/26 00:01:34;;;;;;;26.37;19.10;;;;;;;;;;2085883;28;20642;-58
2020/12/26 00:02:34;;;;;;;25.37;20.00;;;;;;;;;;2079830;28;20245;-59
2020/12/26 00:03:35;;;;;;;29.50;21.27;;;;;;;;;;2077280;28;20619;-58
2020/12/26 00:04:36;;;;;;;30.30;21.17;;;;;;;;;;2088690;28;20180;-57
2020/12/26 00:05:38;;;;;;;23.63;19.70;;;;;;;;;;2083659;28;20176;-56
2020/12/26 00:06:38;;;;;;;25.50;19.00;;;;;;;;;;2084840;28;20424;-59
2020/12/26 00:07:38;;;;;;;29.10;20.20;;;;;;;;;;2075064;28;20445;-54
2020/12/26 00:08:39;;;;;;;25.50;19.87;;;;;;;;;;2079576;28;20180;-59
2020/12/26 00:09:39;;;;;;;24.23;18.33;;;;;;;;;;2086158;28;20249;-58
2020/12/26 00:10:40;;;;;;;26.10;20.93;;;;;;;;;;2078325;28;20614;-55
2020/12/26 00:11:40;;;;;;;33.87;20.77;;;;;;;;;;2077457;28;20272;-58
2020/12/26 00:12:40;;;;;;;26.10;20.77;;;;;;;;;;2085240;28;20235;-56
2020/12/26 00:13:40;;;;;;;22.57;19.37;;;;;;;;;;2086981;28;20176;-58
2020/12/26 00:14:40;;;;;;;26.40;20.10;;;;;;;;;;2089119;28;20180;-58
2020/12/26 00:15:41;;;;;;;28.67;20.47;;;;;;;;;;2088887;28;20180;-57
2020/12/26 00:16:41;;;;;;;27.50;19.03;;;;;;;;;;2080082;28;20208;-58
2020/12/26 00:17:41;;;;;;;27.13;18.43;;;;;;;;;;2078100;28;20656;-57
2020/12/26 00:18:42;;;;;;;28.00;18.93;;;;;;;;;;2085674;28;20275;-57
2020/12/26 00:19:42;;;;;;;22.60;17.80;;;;;;;;;;2078812;28;20188;-56
2020/12/26 00:20:42;;;;;;;24.80;18.70;;;;;;;;;;2081233;28;20168;-56
2020/12/26 00:21:42;;;;;;;25.23;18.17;;;;;;;;;;2085088;28;20176;-56
2020/12/26 00:22:43;;;;;;;22.50;17.37;;;;;;;;;;2088248;28;20211;-56
2020/12/26 00:23:43;;;;;;;22.17;17.30;;;;;;;;;;2085727;28;20184;-54
2020/12/26 00:24:43;;;;;;;22.63;17.87;;;;;;;;;;2088558;28;20188;-54
2020/12/26 00:25:44;;;;;;;20.80;17.83;;;;;;;;;;2089600;28;20175;-58
2020/12/26 00:26:44;;;;;;;22.50;18.07;;;;;;;;;;2087270;28;20180;-56
2020/12/26 00:27:44;;;;;;;23.07;17.87;;;;;;;;;;2088828;28;20594;-55
2020/12/26 00:28:45;;;;;;;24.27;18.50;;;;;;;;;;2079586;28;20176;-56
2020/12/26 00:29:45;;;;;;;23.57;18.80;;;;;;;;;;2078732;28;20256;-53
2020/12/26 00:30:45;;;;;;;23.83;17.77;;;;;;;;;;2074132;28;20172;-55
2020/12/26 00:31:48;;;;;;;21.93;17.80;;;;;;;;;;2077366;28;20187;-57
2020/12/26 00:32:49;;;;;;;24.77;17.00;;;;;;;;;;2071258;28;20677;-55
2020/12/26 00:33:49;;;;;;;30.27;17.90;;;;;;;;;;2071373;28;20417;-54
2020/12/26 00:34:49;;;;;;;25.80;17.50;;;;;;;;;;2082648;28;20203;-55
2020/12/26 00:35:49;;;;;;;22.73;17.27;;;;;;;;;;2089366;28;20689;-55
2020/12/26 00:36:50;;;;;;;25.20;18.83;;;;;;;;;;2088930;28;20616;-54
2020/12/26 00:37:51;;;;;;;24.07;18.57;;;;;;;;;;2088148;28;20616;-54
2020/12/26 00:38:51;;;;;;;22.33;18.20;;;;;;;;;;2089659;28;20170;-54
2020/12/26 00:39:51;;;;;;;26.67;19.47;;;;;;;;;;2089011;28;20415;-56
2020/12/26 00:40:52;;;;;;;24.23;17.60;;;;;;;;;;2090774;28;20233;-55
2020/12/26 00:41:52;;;;;;;25.80;18.97;;;;;;;;;;2081576;28;20238;-57
2020/12/26 00:42:52;;;;;;;25.43;18.80;;;;;;;;;;2074216;28;20188;-54
2020/12/26 00:43:52;;;;;;;20.07;17.87;;;;;;;;;;2082370;28;20179;-55
2020/12/26 00:44:53;;;;;;;24.80;17.43;;;;;;;;;;2080254;28;20168;-54
2020/12/26 00:45:53;;;;;;;26.97;19.13;;;;;;;;;;2074130;28;20328;-57
2020/12/26 00:46:53;;;;;;;27.30;18.83;;;;;;;;;;2083011;28;20172;-58
2020/12/26 00:47:54;;;;;;;22.40;17.87;;;;;;;;;;2074161;28;20619;-58
2020/12/26 00:48:54;;;;;;;24.90;18.03;;;;;;;;;;2082403;28;20255;-58
2020/12/26 00:49:55;;;;;;;23.23;18.10;;;;;;;;;;2091437;28;20160;-59
2020/12/26 00:50:55;;;;;;;23.53;17.50;;;;;;;;;;2082443;28;20692;-56
2020/12/26 00:51:55;;;;;;;22.00;18.30;;;;;;;;;;2074368;28;20204;-56
2020/12/26 00:52:56;;;;;;;23.17;17.60;;;;;;;;;;2081289;28;20199;-57
2020/12/26 00:53:56;;;;;;;21.00;17.67;;;;;;;;;;2074449;28;20193;-57
2020/12/26 00:54:57;;;;;;;23.30;17.70;;;;;;;;;;2074721;28;20256;-56
2020/12/26 00:55:57;;;;;;;25.87;18.03;;;;;;;;;;2074325;28;20184;-56
2020/12/26 00:56:57;;;;;;;24.90;19.00;;;;;;;;;;2074448;28;20607;-57
2020/12/26 00:57:58;;;;;;;26.60;20.17;;;;;;;;;;2074986;28;20604;-58
2020/12/26 00:58:58;;;;;;;25.07;17.33;;;;;;;;;;2069557;28;20261;-58
2020/12/26 00:59:59;;;;;;;25.57;19.27;;;;;;;;;;2062869;28;20254;-55
2020/12/26 01:00:59;;;;;;;27.87;18.13;;;;;;;;;;2073256;28;20267;-58
2020/12/26 01:02:20;;;;;;;24.27;18.83;;;;;;;;;;2071503;28;20386;-58
2020/12/26 01:03:27;;;;;;;25.97;18.77;;;;;;;;;;2082264;28;20405;-59
2020/12/26 01:04:27;;;;;;;29.70;19.83;;;;;;;;;;2066525;28;20407;-58
2020/12/26 01:05:28;;;;;;;25.50;18.60;;;;;;;;;;2071189;28;21019;-55
2020/12/26 01:06:28;;;;;;;27.23;18.97;;;;;;;;;;2078444;28;20220;-57
2020/12/26 01:07:28;;;;;;;27.50;17.93;;;;;;;;;;2077265;28;20220;-57
2020/12/26 01:08:28;;;;;;;24.10;19.73;;;;;;;;;;2071937;28;20200;-56
2020/12/26 01:09:29;;;;;;;28.63;17.97;;;;;;;;;;2082026;28;20176;-56
2020/12/26 01:10:29;;;;;;;27.63;17.93;;;;;;;;;;2082754;28;20236;-58
2020/12/26 01:11:29;;;;;;;23.80;17.30;;;;;;;;;;2087847;28;20580;-58
2020/12/26 01:12:30;;;;;;;22.87;18.40;;;;;;;;;;2085251;28;20192;-57
2020/12/26 01:13:30;;;;;;;20.47;18.03;;;;;;;;;;2084696;28;20712;-57
2020/12/26 01:14:30;;;;;;;24.10;18.67;;;;;;;;;;2089799;28;20233;-57
2020/12/26 01:15:30;;;;;;;28.80;18.50;;;;;;;;;;2081143;28;20179;-57
2020/12/26 01:16:31;;;;;;;22.10;16.80;;;;;;;;;;2074868;28;20215;-56
2020/12/26 01:17:31;;;;;;;21.40;17.97;;;;;;;;;;2073090;28;20206;-56
2020/12/26 01:18:31;;;;;;;27.97;18.43;;;;;;;;;;2073839;28;20649;-58
2020/12/26 01:19:32;;;;;;;20.93;17.17;;;;;;;;;;2082273;28;20183;-59
2020/12/26 01:20:32;;;;;;;21.47;18.10;;;;;;;;;;2082739;28;20247;-57
2020/12/26 01:21:32;;;;;;;24.90;18.23;;;;;;;;;;2082050;28;20179;-58
2020/12/26 01:22:34;;;;;;;23.17;17.37;;;;;;;;;;2082058;28;20277;-57
2020/12/26 01:23:35;;;;;;;21.27;17.93;;;;;;;;;;2080990;28;20222;-58
2020/12/26 01:24:35;;;;;;;22.07;17.73;;;;;;;;;;2081383;28;20495;-58
2020/12/26 01:25:35;;;;;;;26.60;17.93;;;;;;;;;;2080857;28;20172;-59
2020/12/26 01:26:35;;;;;;;22.73;17.40;;;;;;;;;;2082215;28;20180;-54
2020/12/26 01:27:36;;;;;;;23.17;17.53;;;;;;;;;;2073491;28;20263;-57
2020/12/26 01:28:37;;;;;;;19.40;16.43;;;;;;;;;;2073672;28;20188;-58
2020/12/26 01:29:37;;;;;;;24.73;18.20;;;;;;;;;;2077255;28;20177;-59
2020/12/26 01:30:37;;;;;;;21.90;17.13;;;;;;;;;;2089966;28;20175;-55
2020/12/26 01:31:38;;;;;;;23.03;17.20;;;;;;;;;;2082746;28;20191;-57
2020/12/26 01:32:38;;;;;;;25.37;17.23;;;;;;;;;;2082139;28;20671;-58
2020/12/26 01:33:39;;;;;;;26.50;16.70;;;;;;;;;;2081755;28;20463;-55
2020/12/26 01:34:39;;;;;;;23.30;17.60;;;;;;;;;;2081350;28;20224;-57
2020/12/26 01:35:39;;;;;;;21.67;16.07;;;;;;;;;;2067173;28;20783;-54
2020/12/26 01:36:40;;;;;;;19.17;16.00;;;;;;;;;;2081592;28;20212;-56
2020/12/26 01:37:40;;;;;;;18.73;14.70;;;;;;;;;;2090175;28;20266;-54
2020/12/26 01:38:40;;;;;;;19.00;15.07;;;;;;;;;;2087038;28;20675;-57
2020/12/26 01:39:40;;;;;;;20.33;15.20;;;;;;;;;;2090303;28;20179;-54
2020/12/26 01:40:47;;;;;;;17.47;14.10;;;;;;;;;;2082629;28;20183;-55
2020/12/26 01:41:48;;;;;;;17.20;12.30;;;;;;;;;;2083672;28;20157;-57
2020/12/26 01:42:48;;;;;;;21.07;14.90;;;;;;;;;;2080185;28;20196;-57
2020/12/26 01:43:59;;;;;;;19.63;15.30;;;;;;;;;;2080359;28;20924;-58
2020/12/26 01:44:59;;;;;;;20.33;13.83;;;;;;;;;;2072823;28;20197;-57
2020/12/26 01:46:00;;;;;;;18.57;14.93;;;;;;;;;;2073990;28;20426;-54
2020/12/26 01:47:00;;;;;;;19.17;14.90;;;;;;;;;;2080849;28;20184;-53
2020/12/26 01:48:01;;;;;;;23.80;13.77;;;;;;;;;;2079298;28;20205;-56
2020/12/26 01:49:02;;;;;;;22.13;14.20;;;;;;;;;;2085356;28;20589;-57
2020/12/26 01:50:02;;;;;;;18.60;14.27;;;;;;;;;;2087785;28;20199;-58
2020/12/26 01:51:02;;;;;;;22.40;14.73;;;;;;;;;;2085077;28;20221;-57
2020/12/26 01:52:03;;;;;;;22.10;14.77;;;;;;;;;;2087765;28;20176;-57
2020/12/26 01:53:03;;;;;;;20.83;14.60;;;;;;;;;;2074700;28;20574;-58
2020/12/26 01:54:04;;;;;;;16.03;14.43;;;;;;;;;;2068857;28;20177;-57
2020/12/26 01:55:04;;;;;;;19.97;14.73;;;;;;;;;;2079162;28;20637;-54
2020/12/26 01:56:04;;;;;;;17.00;14.07;;;;;;;;;;2068221;28;20173;-58
2020/12/26 01:57:05;;;;;;;16.30;14.10;;;;;;;;;;2073283;28;20165;-55
2020/12/26 01:58:06;;;;;;;17.73;13.27;;;;;;;;;;2087033;28;20936;-54
2020/12/26 02:00:17;;;;;;;18.47;13.87;;;;;;;;;;2077480;28;20216;-56
2020/12/26 02:01:38;;;;;;;18.43;15.23;;;;;;;;;;2081576;28;20428;-59
2020/12/26 02:02:40;;;;;;;17.60;13.60;;;;;;;;;;2084464;28;20405;-55
2020/12/26 02:03:40;;;;;;;17.07;12.73;;;;;;;;;;2089675;28;20932;-59
2020/12/26 02:04:40;;;;;;;15.93;13.40;;;;;;;;;;2089907;28;20515;-59
2020/12/26 02:05:41;;;;;;;19.10;14.93;;;;;;;;;;2089603;28;20242;-54
2020/12/26 02:06:44;;;;;;;18.27;13.10;;;;;;;;;;2090211;28;20186;-59
2020/12/26 02:07:45;;;;;;;19.53;13.90;;;;;;;;;;2088502;28;20222;-59
2020/12/26 02:08:45;;;;;;;17.57;13.50;;;;;;;;;;2090395;28;20474;-59
2020/12/26 02:09:46;;;;;;;19.70;13.37;;;;;;;;;;2089807;28;20872;-57
2020/12/26 02:10:46;;;;;;;16.77;13.47;;;;;;;;;;2090074;28;20544;-57
2020/12/26 02:11:46;;;;;;;17.63;11.70;;;;;;;;;;2079856;28;20185;-60
2020/12/26 02:12:47;;;;;;;14.57;12.17;;;;;;;;;;2089821;28;20172;-58
2020/12/26 02:13:47;;;;;;;18.80;12.73;;;;;;;;;;2079361;28;20191;-52
2020/12/26 02:14:47;;;;;;;14.77;12.40;;;;;;;;;;2089646;28;20175;-59
2020/12/26 02:16:20;;;;;;;15.33;12.23;;;;;;;;;;2089501;28;20659;-52
2020/12/26 02:17:27;;;;;;;14.80;11.87;;;;;;;;;;2056682;28;20175;-57
2020/12/26 02:18:27;;;;;;;14.90;12.27;;;;;;;;;;2079093;28;20459;-56
2020/12/26 02:19:27;;;;;;;14.97;11.47;;;;;;;;;;2088675;28;20784;-58
2020/12/26 02:20:27;;;;;;;15.77;13.07;;;;;;;;;;2086604;28;20241;-57
2020/12/26 02:21:28;;;;;;;19.50;12.87;;;;;;;;;;2088085;28;20635;-58
2020/12/26 02:22:29;;;;;;;16.40;12.57;;;;;;;;;;2087527;28;20201;-54
2020/12/26 02:23:29;;;;;;;21.00;12.93;;;;;;;;;;2085040;28;20920;-59
2020/12/26 02:24:29;;;;;;;18.20;12.73;;;;;;;;;;2088186;28;20565;-52
2020/12/26 02:25:29;;;;;;;15.53;12.57;;;;;;;;;;2083782;28;20180;-56
2020/12/26 02:26:30;;;;;;;17.60;13.87;;;;;;;;;;2088331;28;20558;-56
2020/12/26 02:27:30;;;;;;;17.83;13.47;;;;;;;;;;2084074;28;20215;-54
2020/12/26 02:28:30;;;;;;;20.43;12.80;;;;;;;;;;2084966;28;20539;-57
2020/12/26 02:29:30;;;;;;;15.60;12.20;;;;;;;;;;2089901;28;20214;-54
2020/12/26 02:30:31;;;;;;;21.27;12.03;;;;;;;;;;2086228;28;20180;-59
2020/12/26 02:31:31;;;;;;;16.73;13.33;;;;;;;;;;2090390;28;20211;-59
2020/12/26 02:32:31;;;;;;;15.80;12.60;;;;;;;;;;2083334;28;20374;-59
2020/12/26 02:33:34;;;;;;;20.37;13.00;;;;;;;;;;2087029;28;20176;-60
2020/12/26 02:34:34;;;;;;;16.80;11.93;;;;;;;;;;2088230;28;20189;-58
2020/12/26 02:35:35;;;;;;;15.37;11.50;;;;;;;;;;2089295;28;20428;-54
2020/12/26 02:36:35;;;;;;;13.27;11.80;;;;;;;;;;2089723;28;20884;-58
2020/12/26 02:37:36;;;;;;;14.60;11.87;;;;;;;;;;2083927;28;20191;-56
2020/12/26 02:38:36;;;;;;;16.43;11.67;;;;;;;;;;2088519;28;20178;-58
2020/12/26 02:39:36;;;;;;;15.43;12.47;;;;;;;;;;2089479;28;20195;-58
2020/12/26 02:40:36;;;;;;;15.73;12.00;;;;;;;;;;2089776;28;20172;-58
2020/12/26 02:41:37;;;;;;;14.20;12.23;;;;;;;;;;2088046;28;20523;-57
2020/12/26 02:42:37;;;;;;;15.60;12.47;;;;;;;;;;2080959;28;20182;-57
2020/12/26 02:43:37;;;;;;;15.90;11.93;;;;;;;;;;2089167;28;20251;-54
2020/12/26 02:44:37;;;;;;;17.97;11.90;;;;;;;;;;2089672;28;20724;-58
2020/12/26 02:45:38;;;;;;;19.83;12.10;;;;;;;;;;2090481;28;20202;-54
2020/12/26 02:46:38;;;;;;;15.70;12.47;;;;;;;;;;2089678;28;20172;-52
2020/12/26 02:47:38;;;;;;;14.53;12.83;;;;;;;;;;2083994;28;20176;-58
2020/12/26 02:48:39;;;;;;;14.93;12.33;;;;;;;;;;2084441;28;20250;-57
2020/12/26 02:49:39;;;;;;;16.13;12.37;;;;;;;;;;2089818;28;20227;-57
2020/12/26 02:50:39;;;;;;;17.07;12.93;;;;;;;;;;2084318;28;20180;-57
2020/12/26 02:51:39;;;;;;;15.10;12.57;;;;;;;;;;2090004;28;20730;-55
2020/12/26 02:52:39;;;;;;;16.17;11.73;;;;;;;;;;2084154;28;20263;-56
2020/12/26 02:53:40;;;;;;;16.70;12.77;;;;;;;;;;2074930;28;20207;-54
2020/12/26 02:54:40;;;;;;;15.43;12.27;;;;;;;;;;2081466;28;20184;-54
2020/12/26 02:55:40;;;;;;;16.47;12.73;;;;;;;;;;2089856;28;20191;-56
2020/12/26 02:56:40;;;;;;;21.30;12.57;;;;;;;;;;2082580;28;20275;-56
2020/12/26 02:57:41;;;;;;;17.80;12.70;;;;;;;;;;2089943;28;20271;-51
2020/12/26 02:58:41;;;;;;;16.90;12.37;;;;;;;;;;2089371;28;20233;-57
2020/12/26 02:59:41;;;;;;;13.10;10.20;;;;;;;;;;2081795;28;20208;-61
2020/12/26 03:00:42;;;;;;;18.60;11.93;;;;;;;;;;2089958;28;20160;-57
2020/12/26 03:01:42;;;;;;;17.57;12.83;;;;;;;;;;2080744;28;20179;-57
2020/12/26 03:02:42;;;;;;;12.37;11.13;;;;;;;;;;2080920;28;20696;-55
2020/12/26 03:03:43;;;;;;;15.17;11.67;;;;;;;;;;2089011;28;20258;-56
2020/12/26 03:04:43;;;;;;;17.27;12.23;;;;;;;;;;2084172;28;20184;-54
2020/12/26 03:05:43;;;;;;;15.43;12.03;;;;;;;;;;2086488;28;20567;-56
2020/12/26 03:06:43;;;;;;;13.53;11.43;;;;;;;;;;2086236;28;20192;-52
2020/12/26 03:07:44;;;;;;;14.53;11.73;;;;;;;;;;2088051;28;20551;-57
2020/12/26 03:08:44;;;;;;;14.50;12.17;;;;;;;;;;2087365;28;20274;-56
2020/12/26 03:09:44;;;;;;;13.23;11.40;;;;;;;;;;2085411;28;20208;-56
2020/12/26 03:10:44;;;;;;;14.43;12.43;;;;;;;;;;2081373;28;20180;-55
2020/12/26 03:11:45;;;;;;;14.03;10.70;;;;;;;;;;2074850;28;20275;-55
2020/12/26 03:12:45;;;;;;;16.03;11.93;;;;;;;;;;2081959;28;20212;-54
2020/12/26 03:13:45;;;;;;;12.80;10.60;;;;;;;;;;2089103;28;20535;-57
2020/12/26 03:14:45;;;;;;;15.60;12.30;;;;;;;;;;2089780;28;20167;-54
2020/12/26 03:15:46;;;;;;;13.13;10.77;;;;;;;;;;2089485;28;20243;-54
2020/12/26 03:16:46;;;;;;;14.70;11.17;;;;;;;;;;2089134;28;20211;-55
2020/12/26 03:17:46;;;;;;;13.17;11.57;;;;;;;;;;2085977;28;20183;-53
2020/12/26 03:18:46;;;;;;;13.10;11.83;;;;;;;;;;2074634;28;20271;-54
2020/12/26 03:19:47;;;;;;;14.17;11.77;;;;;;;;;;2079681;28;20193;-60
2020/12/26 03:20:47;;;;;;;13.77;10.63;;;;;;;;;;2082601;28;20172;-56
2020/12/26 03:21:47;;;;;;;13.23;10.80;;;;;;;;;;2089557;28;20241;-55
2020/12/26 03:22:47;;;;;;;18.87;11.90;;;;;;;;;;2081082;28;20177;-59
2020/12/26 03:23:48;;;;;;;12.00;10.30;;;;;;;;;;2081766;28;20168;-58
2020/12/26 03:24:48;;;;;;;11.77;10.03;;;;;;;;;;2085817;28;20263;-54
2020/12/26 03:25:48;;;;;;;16.50;10.83;;;;;;;;;;2090273;28;20546;-52
2020/12/26 03:26:48;;;;;;;14.17;12.03;;;;;;;;;;2089828;28;20167;-56
2020/12/26 03:27:49;;;;;;;13.50;11.13;;;;;;;;;;2088813;28;20317;-54
2020/12/26 03:28:49;;;;;;;13.93;11.03;;;;;;;;;;2081183;28;20211;-58
2020/12/26 03:29:50;;;;;;;19.83;12.23;;;;;;;;;;2081166;28;20691;-59
2020/12/26 03:30:50;;;;;;;16.50;11.70;;;;;;;;;;2080976;28;20263;-59
2020/12/26 03:31:50;;;;;;;16.50;10.80;;;;;;;;;;2081870;28;20246;-58
2020/12/26 03:32:50;;;;;;;14.80;11.17;;;;;;;;;;2088113;28;20179;-56
2020/12/26 03:33:51;;;;;;;14.03;11.43;;;;;;;;;;2089774;28;20180;-56
2020/12/26 03:34:51;;;;;;;19.10;11.87;;;;;;;;;;2086664;28;20567;-57
2020/12/26 03:35:51;;;;;;;14.80;10.83;;;;;;;;;;2082910;28;20184;-55
2020/12/26 03:36:52;;;;;;;18.67;10.87;;;;;;;;;;2089489;28;20182;-54
2020/12/26 03:37:52;;;;;;;12.93;10.93;;;;;;;;;;2089639;28;20239;-57
2020/12/26 03:38:52;;;;;;;11.33;10.10;;;;;;;;;;2089408;28;20172;-56
2020/12/26 03:39:52;;;;;;;12.53;9.37;;;;;;;;;;2089630;28;20199;-59
2020/12/26 03:40:53;;;;;;;12.30;9.77;;;;;;;;;;2076335;28;20601;-58
2020/12/26 03:41:53;;;;;;;16.30;10.00;;;;;;;;;;2089472;28;20254;-56
2020/12/26 03:42:53;;;;;;;14.17;8.87;;;;;;;;;;2090245;28;20218;-57
2020/12/26 03:43:53;;;;;;;13.37;9.53;;;;;;;;;;2089424;28;20186;-54
2020/12/26 03:44:54;;;;;;;11.67;9.47;;;;;;;;;;2089011;28;20618;-55
2020/12/26 03:45:54;;;;;;;11.87;9.83;;;;;;;;;;2072563;28;20192;-59
2020/12/26 03:46:54;;;;;;;10.33;7.83;;;;;;;;;;2080738;28;20191;-57
2020/12/26 03:47:54;;;;;;;12.67;9.03;;;;;;;;;;2086098;28;20179;-57
2020/12/26 03:48:55;;;;;;;10.80;7.97;;;;;;;;;;2076748;28;20181;-57
2020/12/26 03:49:55;;;;;;;12.40;8.87;;;;;;;;;;2089787;28;20207;-60
2020/12/26 03:50:55;;;;;;;12.97;8.70;;;;;;;;;;2073119;28;20173;-57
2020/12/26 03:51:55;;;;;;;9.40;8.27;;;;;;;;;;2072822;28;20181;-55
2020/12/26 03:52:56;;;;;;;10.37;7.80;;;;;;;;;;2087613;28;20175;-58
2020/12/26 03:53:56;;;;;;;11.90;8.67;;;;;;;;;;2089627;28;20836;-56
2020/12/26 03:54:56;;;;;;;11.23;8.90;;;;;;;;;;2088881;28;20172;-57
2020/12/26 03:55:56;;;;;;;11.30;7.40;;;;;;;;;;2089771;28;20184;-57
2020/12/26 03:56:57;;;;;;;11.87;7.70;;;;;;;;;;2089867;28;20182;-56
2020/12/26 03:57:57;;;;;;;10.03;7.20;;;;;;;;;;2088057;28;20191;-59
2020/12/26 03:58:57;;;;;;;13.33;8.27;;;;;;;;;;2081112;28;20168;-59
2020/12/26 03:59:57;;;;;;;9.00;6.67;;;;;;;;;;2080921;28;20295;-58
2020/12/26 04:00:57;;;;;;;10.97;8.10;;;;;;;;;;2089045;28;20184;-59
2020/12/26 04:01:58;;;;;;;10.53;7.37;;;;;;;;;;2089301;28;20164;-55
2020/12/26 04:02:58;;;;;;;12.23;7.23;;;;;;;;;;2082945;28;20211;-55
2020/12/26 04:03:58;;;;;;;12.27;5.80;;;;;;;;;;2086808;28;20561;-57
2020/12/26 04:04:58;;;;;;;11.80;7.07;;;;;;;;;;2090154;28;20541;-59
2020/12/26 04:05:59;;;;;;;12.23;7.00;;;;;;;;;;2085792;28;20207;-57
2020/12/26 04:06:59;;;;;;;9.77;7.67;;;;;;;;;;2087975;28;20175;-58
2020/12/26 04:07:59;;;;;;;10.33;6.67;;;;;;;;;;2082372;28;20177;-57
2020/12/26 04:09:00;;;;;;;11.73;7.23;;;;;;;;;;2069485;28;20217;-61
2020/12/26 04:10:00;;;;;;;6.90;5.83;;;;;;;;;;2085265;28;20263;-61
2020/12/26 04:11:00;;;;;;;14.53;6.37;;;;;;;;;;2083601;28;20176;-57
2020/12/26 04:12:00;;;;;;;12.90;6.57;;;;;;;;;;2087223;28;20183;-58
2020/12/26 04:13:00;;;;;;;10.63;6.20;;;;;;;;;;2079244;28;20175;-58
2020/12/26 04:14:01;;;;;;;9.73;5.77;;;;;;;;;;2074883;28;20179;-55
2020/12/26 04:15:01;;;;;;;6.03;5.50;;;;;;;;;;2089663;28;20183;-56
2020/12/26 04:16:01;;;;;;;8.27;5.87;;;;;;;;;;2087460;28;20191;-55
2020/12/26 04:17:01;;;;;;;6.73;5.57;;;;;;;;;;2088955;28;20190;-60
2020/12/26 04:18:02;;;;;;;7.10;6.07;;;;;;;;;;2075339;28;20223;-59
2020/12/26 04:19:02;;;;;;;8.37;6.10;;;;;;;;;;2082569;28;20168;-57
2020/12/26 04:20:03;;;;;;;6.53;5.73;;;;;;;;;;2088544;28;20192;-56
2020/12/26 04:21:03;;;;;;;9.37;6.10;;;;;;;;;;2083753;28;20703;-59
2020/12/26 04:22:03;;;;;;;7.20;6.10;;;;;;;;;;2088717;28;20187;-56
2020/12/26 04:23:04;;;;;;;6.87;5.27;;;;;;;;;;2087612;28;20167;-56
2020/12/26 04:24:04;;;;;;;10.33;5.87;;;;;;;;;;2085601;28;20172;-55
2020/12/26 04:25:04;;;;;;;11.03;5.70;;;;;;;;;;2089394;28;20180;-53
2020/12/26 04:26:08;;;;;;;8.20;6.10;;;;;;;;;;2088297;28;20525;-53
2020/12/26 04:27:09;;;;;;;8.13;5.53;;;;;;;;;;2089492;28;20637;-54
2020/12/26 04:28:09;;;;;;;6.67;5.63;;;;;;;;;;2088158;28;20508;-56
2020/12/26 04:29:09;;;;;;;6.07;5.33;;;;;;;;;;2085816;28;20210;-57
2020/12/26 04:30:10;;;;;;;8.63;6.07;;;;;;;;;;2086026;28;20211;-57
2020/12/26 04:31:10;;;;;;;7.77;5.63;;;;;;;;;;2085272;28;20171;-58
2020/12/26 04:32:11;;;;;;;6.83;5.13;;;;;;;;;;2086781;28;20255;-55
2020/12/26 04:33:12;;;;;;;10.03;5.87;;;;;;;;;;2089394;28;20175;-55
2020/12/26 04:34:12;;;;;;;6.50;5.73;;;;;;;;;;2084041;28;20207;-59
2020/12/26 04:35:12;;;;;;;6.23;5.63;;;;;;;;;;2084219;28;20615;-55
2020/12/26 04:36:12;;;;;;;9.07;5.57;;;;;;;;;;2084909;28;20556;-55
2020/12/26 04:37:13;;;;;;;8.80;5.20;;;;;;;;;;2087953;28;20178;-58
2020/12/26 04:38:13;;;;;;;9.90;5.77;;;;;;;;;;2084215;28;20668;-57
2020/12/26 04:39:13;;;;;;;6.87;5.53;;;;;;;;;;2083229;28;20180;-56
2020/12/26 04:40:14;;;;;;;6.73;4.80;;;;;;;;;;2085473;28;20203;-60
2020/12/26 04:41:17;;;;;;;6.57;4.93;;;;;;;;;;2088001;28;20229;-59
2020/12/26 04:42:18;;;;;;;7.80;5.03;;;;;;;;;;2086472;28;20262;-58
2020/12/26 04:43:18;;;;;;;5.17;4.77;;;;;;;;;;2086518;28;20184;-59
2020/12/26 04:44:20;;;;;;;12.37;5.90;;;;;;;;;;2086123;28;20424;-52
2020/12/26 04:45:20;;;;;;;8.23;5.30;;;;;;;;;;2081976;28;20172;-60
2020/12/26 04:46:23;;;;;;;9.23;5.37;;;;;;;;;;2089557;28;20180;-59
2020/12/26 04:47:30;;;;;;;7.80;4.63;;;;;;;;;;2088106;28;20201;-57
2020/12/26 04:48:30;;;;;;;6.23;4.67;;;;;;;;;;2088983;28;20773;-59
2020/12/26 04:49:31;;;;;;;7.00;5.30;;;;;;;;;;2077205;28;20220;-58
2020/12/26 04:50:33;;;;;;;7.83;5.67;;;;;;;;;;2079381;28;20181;-55
2020/12/26 04:51:34;;;;;;;10.00;5.87;;;;;;;;;;2082328;28;20192;-58
2020/12/26 04:52:36;;;;;;;8.43;5.40;;;;;;;;;;2088816;28;20217;-58
2020/12/26 04:53:38;;;;;;;9.80;5.93;;;;;;;;;;2082232;28;20433;-58
2020/12/26 04:54:40;;;;;;;9.53;6.07;;;;;;;;;;2089376;28;20176;-58
2020/12/26 04:55:45;;;;;;;5.70;5.07;;;;;;;;;;2081058;28;20267;-59
2020/12/26 04:56:45;;;;;;;7.13;5.37;;;;;;;;;;2072602;28;20207;-55
2020/12/26 04:57:47;;;;;;;6.80;5.20;;;;;;;;;;2080235;28;20901;-58
2020/12/26 04:58:48;;;;;;;6.80;5.13;;;;;;;;;;2089096;28;20183;-55
2020/12/26 04:59:48;;;;;;;7.23;5.60;;;;;;;;;;2089397;28;20207;-59
2020/12/26 05:00:48;;;;;;;7.40;5.67;;;;;;;;;;2087199;28;20198;-59
2020/12/26 05:01:50;;;;;;;11.23;6.13;;;;;;;;;;2089829;28;20207;-58
2020/12/26 05:02:52;;;;;;;8.57;5.80;;;;;;;;;;2088626;28;20163;-57
2020/12/26 05:03:54;;;;;;;8.47;4.90;;;;;;;;;;2083879;28;20203;-58
2020/12/26 05:04:57;;;;;;;7.53;6.50;;;;;;;;;;2088833;28;20569;-58
2020/12/26 05:06:04;;;;;;;10.03;4.87;;;;;;;;;;2088496;28;20547;-58
2020/12/26 05:07:04;;;;;;;6.03;5.00;;;;;;;;;;2087771;28;20180;-56
2020/12/26 05:08:09;;;;;;;7.93;5.30;;;;;;;;;;2089916;28;20184;-57
2020/12/26 05:09:09;;;;;;;7.33;6.20;;;;;;;;;;2091594;28;20251;-58
2020/12/26 05:10:09;;;;;;;11.93;5.47;;;;;;;;;;2092294;28;20180;-57
2020/12/26 05:11:09;;;;;;;10.80;6.03;;;;;;;;;;2083144;28;20176;-58
2020/12/26 05:12:10;;;;;;;10.27;6.07;;;;;;;;;;2084722;28;20164;-58
2020/12/26 05:13:11;;;;;;;6.67;5.90;;;;;;;;;;2088380;28;20184;-58
2020/12/26 05:14:15;;;;;;;7.17;5.50;;;;;;;;;;2088663;28;20179;-57
2020/12/26 05:15:15;;;;;;;10.57;6.03;;;;;;;;;;2090234;28;20175;-59
2020/12/26 05:16:15;;;;;;;7.23;5.40;;;;;;;;;;2090697;28;20243;-57
2020/12/26 05:17:15;;;;;;;9.37;6.70;;;;;;;;;;2087689;28;20221;-58
2020/12/26 05:18:16;;;;;;;8.23;6.33;;;;;;;;;;2078118;28;20193;-57
2020/12/26 05:19:17;;;;;;;8.07;6.13;;;;;;;;;;2072755;28;20204;-60
2020/12/26 05:20:18;;;;;;;7.63;5.60;;;;;;;;;;2087662;28;20234;-59
2020/12/26 05:21:26;;;;;;;8.77;5.33;;;;;;;;;;2093226;28;20179;-60
2020/12/26 05:22:27;;;;;;;10.33;5.97;;;;;;;;;;2089487;28;20180;-57
2020/12/26 05:23:27;;;;;;;8.23;6.03;;;;;;;;;;2087480;28;20554;-58
2020/12/26 05:24:27;;;;;;;10.23;6.67;;;;;;;;;;2086650;28;20194;-55
2020/12/26 05:25:27;;;;;;;7.67;6.23;;;;;;;;;;2078090;28;20557;-55
2020/12/26 05:26:36;;;;;;;9.10;6.43;;;;;;;;;;2074785;28;20197;-56
2020/12/26 05:27:36;;;;;;;7.13;6.23;;;;;;;;;;2088997;28;20194;-57
2020/12/26 05:28:37;;;;;;;9.23;6.93;;;;;;;;;;2090096;28;20179;-58
2020/12/26 05:29:38;;;;;;;7.17;6.30;;;;;;;;;;2090312;28;20537;-59
2020/12/26 05:30:39;;;;;;;8.57;7.23;;;;;;;;;;2084817;28;20185;-57
2020/12/26 05:31:42;;;;;;;9.30;7.00;;;;;;;;;;2089567;28;20541;-59
2020/12/26 05:32:46;;;;;;;10.40;6.93;;;;;;;;;;2083872;28;20259;-59
2020/12/26 05:33:47;;;;;;;11.07;6.80;;;;;;;;;;2084342;28;20212;-57
2020/12/26 05:34:47;;;;;;;7.37;6.50;;;;;;;;;;2080405;28;20188;-61
2020/12/26 05:35:48;;;;;;;10.93;6.93;;;;;;;;;;2082976;28;20645;-58
2020/12/26 05:36:49;;;;;;;7.70;6.90;;;;;;;;;;2085772;28;20829;-54
2020/12/26 05:37:49;;;;;;;10.27;7.00;;;;;;;;;;2088929;28;20431;-57
2020/12/26 05:38:50;;;;;;;8.20;6.50;;;;;;;;;;2087745;28;20256;-58
2020/12/26 05:39:50;;;;;;;8.17;5.97;;;;;;;;;;2085974;28;20204;-54
2020/12/26 05:40:52;;;;;;;7.13;6.43;;;;;;;;;;2089106;28;20572;-54
2020/12/26 05:41:53;;;;;;;8.23;7.27;;;;;;;;;;2089470;28;20178;-57
2020/12/26 05:42:55;;;;;;;14.20;6.73;;;;;;;;;;2086606;28;20595;-58
2020/12/26 05:43:56;;;;;;;10.97;7.80;;;;;;;;;;2090331;28;20404;-58
2020/12/26 05:45:04;;;;;;;11.67;8.20;;;;;;;;;;2087974;28;21238;-56
2020/12/26 05:46:04;;;;;;;10.00;7.87;;;;;;;;;;2089679;28;20404;-53
2020/12/26 05:47:05;;;;;;;8.93;7.90;;;;;;;;;;2086201;28;20652;-53
2020/12/26 05:48:09;;;;;;;9.57;8.57;;;;;;;;;;2082135;28;20180;-55
2020/12/26 05:49:23;;;;;;;9.97;8.90;;;;;;;;;;2080018;28;20177;-56
2020/12/26 05:50:24;;;;;;;12.63;8.80;;;;;;;;;;2086309;28;20225;-56
2020/12/26 05:51:25;;;;;;;11.83;8.33;;;;;;;;;;2090451;28;20424;-58
2020/12/26 05:52:28;;;;;;;14.03;9.17;;;;;;;;;;2079653;28;20181;-56
2020/12/26 05:53:29;;;;;;;10.47;8.03;;;;;;;;;;2083140;28;20184;-56
2020/12/26 05:54:29;;;;;;;14.47;8.60;;;;;;;;;;2089648;28;20656;-57
2020/12/26 05:55:39;;;;;;;14.60;8.60;;;;;;;;;;2090239;28;20196;-54
2020/12/26 05:56:40;;;;;;;9.73;8.73;;;;;;;;;;2088924;28;20203;-57
2020/12/26 05:57:40;;;;;;;9.53;8.60;;;;;;;;;;2089312;28;20442;-56
2020/12/26 05:58:41;;;;;;;12.33;9.10;;;;;;;;;;2088217;28;20264;-57
2020/12/26 05:59:45;;;;;;;12.63;8.83;;;;;;;;;;2078450;28;20192;-58